createdAt,value
2023-05-16T00:00:41.510Z,99.90
2023-05-16T00:03:08.511Z,99.90
2023-05-16T00:05:36.821Z,99.90
2023-05-16T00:08:03.895Z,99.90
2023-05-16T00:10:30.905Z,99.90
2023-05-16T00:12:57.764Z,99.90
2023-05-16T00:15:25.096Z,99.90
2023-05-16T00:17:52.576Z,99.90
2023-05-16T00:20:23.383Z,99.90
2023-05-16T00:22:50.991Z,99.90
2023-05-16T00:25:18.189Z,99.90
2023-05-16T00:27:45.112Z,99.90
2023-05-16T00:30:12.655Z,99.90
2023-05-16T00:32:39.623Z,99.90
2023-05-16T00:35:07.372Z,99.90
2023-05-16T00:37:34.196Z,99.90
2023-05-16T00:40:01.065Z,99.90
2023-05-16T00:42:28.049Z,99.90
2023-05-16T00:44:54.868Z,99.90
2023-05-16T00:47:21.782Z,99.90
2023-05-16T00:49:51.101Z,99.90
2023-05-16T00:52:18.051Z,99.90
2023-05-16T00:54:44.997Z,99.90
2023-05-16T00:57:12.031Z,99.90
2023-05-16T00:59:40.132Z,99.90
2023-05-16T01:02:07.008Z,99.90
2023-05-16T01:04:33.833Z,99.90
2023-05-16T01:07:02.733Z,99.90
2023-05-16T01:09:29.754Z,99.90
2023-05-16T01:12:20.639Z,99.90
2023-05-16T01:15:09.288Z,99.90
2023-05-16T01:18:06.450Z,99.90
2023-05-16T01:20:42.464Z,99.90
2023-05-16T01:23:28.161Z,99.90
2023-05-16T01:26:03.781Z,99.90
2023-05-16T01:28:31.724Z,99.90
2023-05-16T01:30:58.630Z,99.90
2023-05-16T01:33:25.593Z,99.90
2023-05-16T01:36:11.362Z,99.90
2023-05-16T01:39:01.393Z,99.90
2023-05-16T01:41:34.657Z,99.90
2023-05-16T01:44:07.761Z,99.90
2023-05-16T01:46:42.065Z,99.90
2023-05-16T01:49:31.388Z,99.90
2023-05-16T01:52:07.266Z,99.90
2023-05-16T01:54:38.910Z,99.90
2023-05-16T01:57:08.240Z,99.90
2023-05-16T01:59:36.005Z,99.90
2023-05-16T02:02:03.453Z,99.90
2023-05-16T02:04:30.546Z,99.90
2023-05-16T02:06:57.653Z,99.90
2023-05-16T02:09:25.991Z,99.90
2023-05-16T02:11:52.978Z,99.90
2023-05-16T02:14:19.840Z,99.90
2023-05-16T02:16:46.819Z,99.90
2023-05-16T02:19:13.742Z,99.90
2023-05-16T02:21:40.670Z,99.90
2023-05-16T02:24:07.652Z,99.90
2023-05-16T02:26:34.754Z,99.90
2023-05-16T02:29:01.590Z,99.90
2023-05-16T02:31:33.529Z,99.90
2023-05-16T02:34:01.552Z,99.90
2023-05-16T02:36:28.735Z,99.90
2023-05-16T02:38:55.649Z,99.90
2023-05-16T02:41:23.155Z,99.90
2023-05-16T02:43:50.074Z,99.90
2023-05-16T02:46:31.596Z,99.90
2023-05-16T02:48:58.557Z,99.90
2023-05-16T02:51:27.640Z,99.90
2023-05-16T02:53:57.263Z,99.90
2023-05-16T02:56:24.276Z,99.90
2023-05-16T02:58:51.206Z,99.90
2023-05-16T03:01:18.562Z,99.90
2023-05-16T03:03:45.583Z,99.90
2023-05-16T03:06:12.895Z,99.90
2023-05-16T03:08:39.794Z,99.90
2023-05-16T03:11:06.726Z,99.90
2023-05-16T03:13:33.974Z,99.90
2023-05-16T03:16:01.403Z,99.90
2023-05-16T03:18:28.562Z,99.90
2023-05-16T03:20:55.588Z,99.90
2023-05-16T03:23:22.495Z,99.90
2023-05-16T03:25:49.566Z,99.90
2023-05-16T03:28:18.155Z,99.90
2023-05-16T03:30:45.224Z,99.90
2023-05-16T03:33:12.294Z,99.90
2023-05-16T03:35:39.960Z,99.90
2023-05-16T03:38:07.457Z,99.90
2023-05-16T03:40:34.299Z,99.90
2023-05-16T03:43:01.193Z,99.90
2023-05-16T03:45:29.374Z,99.90
2023-05-16T03:47:56.723Z,99.90
2023-05-16T03:50:23.980Z,99.90
2023-05-16T03:52:53.751Z,99.90
2023-05-16T03:55:21.533Z,99.90
2023-05-16T03:57:50.021Z,99.90
2023-05-16T04:00:17.331Z,99.90
2023-05-16T04:02:44.909Z,99.90
2023-05-16T04:05:13.882Z,99.90
2023-05-16T04:07:41.379Z,99.90
2023-05-16T04:10:09.786Z,99.90
2023-05-16T04:12:37.234Z,99.90
2023-05-16T04:15:05.605Z,99.90
2023-05-16T04:17:33.026Z,99.90
2023-05-16T04:20:00.789Z,99.90
2023-05-16T04:22:27.756Z,99.90
2023-05-16T04:24:54.645Z,99.90
2023-05-16T04:27:21.776Z,99.90
2023-05-16T04:29:48.682Z,99.90
2023-05-16T04:32:15.683Z,99.90
2023-05-16T04:34:44.222Z,99.90
2023-05-16T04:37:11.641Z,99.90
2023-05-16T04:39:38.538Z,99.90
2023-05-16T04:42:06.223Z,99.90
2023-05-16T04:44:33.087Z,99.90
2023-05-16T04:46:59.958Z,99.90
2023-05-16T04:49:26.852Z,99.90
2023-05-16T04:51:53.695Z,99.90
2023-05-16T04:54:20.643Z,99.90
2023-05-16T04:56:47.505Z,99.90
2023-05-16T04:59:15.154Z,99.90
2023-05-16T05:01:42.246Z,99.90
2023-05-16T05:04:09.183Z,99.90
2023-05-16T05:06:36.101Z,99.90
2023-05-16T05:09:03.217Z,99.90
2023-05-16T05:11:33.247Z,99.90
2023-05-16T05:14:00.188Z,99.90
2023-05-16T05:16:27.273Z,99.90
2023-05-16T05:18:54.240Z,99.90
2023-05-16T05:21:22.059Z,99.90
2023-05-16T05:23:49.775Z,99.90
2023-05-16T05:26:17.206Z,99.90
2023-05-16T05:28:53.812Z,99.90
2023-05-16T05:31:24.684Z,99.90
2023-05-16T05:33:51.706Z,99.90
2023-05-16T05:36:18.534Z,99.90
2023-05-16T05:38:45.483Z,99.90
2023-05-16T05:41:12.419Z,99.90
2023-05-16T05:43:39.354Z,99.90
2023-05-16T05:46:07.112Z,99.90
2023-05-16T05:48:34.363Z,99.90
2023-05-16T05:51:01.286Z,99.90
2023-05-16T05:53:28.353Z,99.90
2023-05-16T05:55:55.491Z,99.90
2023-05-16T05:58:23.326Z,99.90
2023-05-16T06:00:50.208Z,99.90
2023-05-16T06:03:19.187Z,99.90
2023-05-16T06:05:46.195Z,99.90
2023-05-16T06:08:13.054Z,99.90
2023-05-16T06:10:39.953Z,99.90
2023-05-16T06:13:06.817Z,99.90
2023-05-16T06:15:33.737Z,99.90
2023-05-16T06:18:00.830Z,99.90
2023-05-16T06:20:27.726Z,99.90
2023-05-16T06:22:54.631Z,99.90
2023-05-16T06:25:21.498Z,99.90
2023-05-16T06:27:49.943Z,99.90
2023-05-16T06:30:17.368Z,99.90
2023-05-16T06:32:44.605Z,99.90
2023-05-16T06:35:11.658Z,99.90
2023-05-16T06:37:39.581Z,99.90
2023-05-16T06:40:07.942Z,99.90
2023-05-16T06:42:34.987Z,99.90
2023-05-16T06:45:02.104Z,99.90
2023-05-16T06:47:29.181Z,99.90
2023-05-16T06:49:56.147Z,99.90
2023-05-16T06:52:23.985Z,99.90
2023-05-16T06:54:51.033Z,99.90
2023-05-16T06:57:18.050Z,99.90
2023-05-16T06:59:45.083Z,99.90
2023-05-16T07:02:12.076Z,99.90
2023-05-16T07:04:40.971Z,99.90
2023-05-16T07:07:09.098Z,99.90
2023-05-16T07:09:36.128Z,99.90
2023-05-16T07:12:06.005Z,99.90
2023-05-16T07:14:32.983Z,99.90
2023-05-16T07:17:01.040Z,99.90
2023-05-16T07:19:28.380Z,99.90
2023-05-16T07:21:55.457Z,99.90
2023-05-16T07:24:22.407Z,99.90
2023-05-16T07:26:49.653Z,99.90
2023-05-16T07:29:18.549Z,99.90
2023-05-16T07:31:46.034Z,99.90
2023-05-16T07:34:13.323Z,99.90
2023-05-16T07:36:40.436Z,99.90
2023-05-16T07:39:07.328Z,99.90
2023-05-16T07:41:34.339Z,99.90
2023-05-16T07:44:01.348Z,99.90
2023-05-16T07:46:28.454Z,99.90
2023-05-16T07:48:55.456Z,99.90
2023-05-16T07:51:22.422Z,99.90
2023-05-16T07:53:49.556Z,99.90
2023-05-16T07:56:16.482Z,99.90
2023-05-16T07:58:43.939Z,99.90
2023-05-16T08:01:11.955Z,99.90
2023-05-16T08:03:39.102Z,99.90
2023-05-16T08:06:06.526Z,99.90
2023-05-16T08:08:33.559Z,99.90
2023-05-16T08:11:00.724Z,99.90
2023-05-16T08:13:27.715Z,99.90
2023-05-16T08:15:54.792Z,99.90
2023-05-16T08:18:22.835Z,99.90
2023-05-16T08:20:50.128Z,99.90
2023-05-16T08:23:17.207Z,99.90
2023-05-16T08:25:46.632Z,99.90
2023-05-16T08:28:13.672Z,99.90
2023-05-16T08:30:42.904Z,99.90
2023-05-16T08:33:10.702Z,99.90
2023-05-16T08:35:37.744Z,99.90
2023-05-16T08:38:04.998Z,99.90
2023-05-16T08:40:32.403Z,99.90
2023-05-16T08:43:00.019Z,99.90
2023-05-16T08:45:27.699Z,99.90
2023-05-16T08:47:55.993Z,99.90
2023-05-16T08:50:24.421Z,99.90
2023-05-16T08:52:53.835Z,99.20
2023-05-16T08:55:23.861Z,99.00
2023-05-16T08:57:54.064Z,99.30
2023-05-16T09:00:22.785Z,99.00
2023-05-16T09:02:50.518Z,99.90
2023-05-16T09:05:18.241Z,99.90
2023-05-16T09:07:46.124Z,99.00
2023-05-16T09:10:13.972Z,99.20
2023-05-16T09:12:42.416Z,98.00
2023-05-16T09:15:11.267Z,98.90
2023-05-16T09:17:48.991Z,99.70
2023-05-16T09:20:18.633Z,99.50
2023-05-16T09:22:53.200Z,99.90
2023-05-16T09:25:30.363Z,99.90
2023-05-16T09:28:01.410Z,99.50
2023-05-16T09:30:39.511Z,99.90
2023-05-16T09:33:08.046Z,98.80
2023-05-16T09:35:44.804Z,99.40
2023-05-16T09:38:21.188Z,98.70
2023-05-16T09:40:51.307Z,99.70
2023-05-16T09:46:22.946Z,98.70
2023-05-16T09:48:58.339Z,99.90
2023-05-16T09:51:28.871Z,99.90
2023-05-16T09:54:01.174Z,99.90
2023-05-16T09:56:30.180Z,99.00
2023-05-16T09:59:24.014Z,99.90
2023-05-16T10:01:55.591Z,98.90
2023-05-16T10:04:23.021Z,99.90
2023-05-16T10:06:52.549Z,98.90
2023-05-16T10:09:21.315Z,98.20
2023-05-16T10:11:49.698Z,98.00
2023-05-16T10:14:19.013Z,97.80
2023-05-16T10:16:51.402Z,97.20
2023-05-16T10:19:21.758Z,98.90
2023-05-16T10:21:53.607Z,99.20
2023-05-16T10:24:29.813Z,99.00
2023-05-16T10:26:56.788Z,99.60
2023-05-16T10:29:28.373Z,98.70
2023-05-16T10:31:58.242Z,98.20
2023-05-16T10:34:37.543Z,99.60
2023-05-16T10:37:05.444Z,99.90
2023-05-16T10:39:41.313Z,99.90
2023-05-16T10:42:19.988Z,99.90
2023-05-16T10:45:02.027Z,99.30
2023-05-16T10:47:44.047Z,98.40
2023-05-16T10:50:14.558Z,98.90
2023-05-16T10:52:41.479Z,97.50
2023-05-16T10:55:08.554Z,99.50
2023-05-16T10:57:37.873Z,98.30
2023-05-16T11:00:09.548Z,99.30
2023-05-16T11:02:41.716Z,99.90
2023-05-16T11:05:17.917Z,98.70
2023-05-16T11:07:44.962Z,97.20
2023-05-16T11:10:16.398Z,96.80
2023-05-16T11:12:49.611Z,98.30
2023-05-16T11:15:24.858Z,98.90
2023-05-16T11:18:15.950Z,98.60
2023-05-16T11:20:44.116Z,99.50
2023-05-16T11:23:33.088Z,98.60
2023-05-16T11:26:01.288Z,96.50
2023-05-16T11:28:28.443Z,97.60
2023-05-16T11:31:00.061Z,98.70
2023-05-16T11:33:29.942Z,97.90
2023-05-16T11:36:16.602Z,95.50
2023-05-16T11:38:44.448Z,97.20
2023-05-16T11:41:15.577Z,96.90
2023-05-16T11:43:45.096Z,96.70
2023-05-16T11:46:16.347Z,96.10
2023-05-16T11:48:46.003Z,96.90
2023-05-16T11:51:18.751Z,96.30
2023-05-16T11:53:47.906Z,97.20
2023-05-16T11:56:17.778Z,96.30
2023-05-16T11:58:45.683Z,97.00
2023-05-16T12:01:13.047Z,95.10
2023-05-16T12:03:41.093Z,96.20
2023-05-16T12:06:09.114Z,95.20
2023-05-16T12:08:36.456Z,94.70
2023-05-16T12:11:28.996Z,95.60
2023-05-16T12:13:56.292Z,95.20
2023-05-16T12:16:23.791Z,95.30
2023-05-16T12:18:51.230Z,94.50
2023-05-16T12:21:18.374Z,95.10
2023-05-16T12:23:45.616Z,94.10
2023-05-16T12:26:12.877Z,93.90
2023-05-16T12:28:40.156Z,95.00
2023-05-16T12:31:30.349Z,94.70
2023-05-16T12:33:59.467Z,94.40
2023-05-16T12:36:26.666Z,95.40
2023-05-16T12:38:54.243Z,95.20
2023-05-16T12:41:22.692Z,95.80
2023-05-16T12:43:50.770Z,95.50
2023-05-16T12:46:20.037Z,96.30
2023-05-16T12:48:48.156Z,95.80
2023-05-16T12:51:17.661Z,96.90
2023-05-16T12:54:01.298Z,96.00
2023-05-16T12:56:35.431Z,95.60
2023-05-16T12:59:03.220Z,96.10
2023-05-16T13:01:30.373Z,96.10
2023-05-16T13:03:58.106Z,95.20
2023-05-16T13:06:25.319Z,96.00
2023-05-16T13:08:52.714Z,96.80
2023-05-16T13:11:20.864Z,96.60
2023-05-16T13:13:48.197Z,95.30
2023-05-16T13:16:18.379Z,96.20
2023-05-16T13:18:46.121Z,96.20
2023-05-16T13:21:13.119Z,95.70
2023-05-16T13:23:40.146Z,95.80
2023-05-16T13:26:07.521Z,95.40
2023-05-16T13:28:34.569Z,95.90
2023-05-16T13:31:01.655Z,95.90
2023-05-16T13:33:32.437Z,95.00
2023-05-16T13:36:05.136Z,95.90
2023-05-16T13:38:36.162Z,95.80
2023-05-16T13:41:03.161Z,95.50
2023-05-16T13:43:30.485Z,95.30
2023-05-16T13:45:58.126Z,93.90
2023-05-16T13:48:25.304Z,93.50
2023-05-16T13:50:53.505Z,94.80
2023-05-16T13:53:20.429Z,95.40
2023-05-16T13:55:47.721Z,97.40
2023-05-16T13:58:14.741Z,96.50
2023-05-16T14:00:45.852Z,95.90
2023-05-16T14:03:13.572Z,97.20
2023-05-16T14:05:40.851Z,96.80
2023-05-16T14:08:08.589Z,98.10
2023-05-16T14:10:35.708Z,97.30
2023-05-16T14:13:06.084Z,96.20
2023-05-16T14:15:36.358Z,96.30
2023-05-16T14:18:04.774Z,96.60
2023-05-16T14:20:32.034Z,96.20
2023-05-16T14:22:59.260Z,95.60
2023-05-16T14:25:26.443Z,94.80
2023-05-16T14:27:53.725Z,94.50
2023-05-16T14:30:21.131Z,93.90
2023-05-16T14:32:48.448Z,95.00
2023-05-16T14:35:16.039Z,94.60
2023-05-16T14:37:45.857Z,95.70
2023-05-16T14:40:15.362Z,93.60
2023-05-16T14:42:42.330Z,93.00
2023-05-16T14:45:09.592Z,94.40
2023-05-16T14:47:40.865Z,95.10
2023-05-16T14:50:32.960Z,95.60
2023-05-16T14:53:00.009Z,94.10
2023-05-16T14:55:27.340Z,94.70
2023-05-16T14:57:59.477Z,95.30
2023-05-16T15:00:27.726Z,95.10
2023-05-16T15:02:54.979Z,96.30
2023-05-16T15:05:22.114Z,94.90
2023-05-16T15:07:50.184Z,94.60
2023-05-16T15:10:17.476Z,94.30
2023-05-16T15:12:44.385Z,94.30
2023-05-16T15:15:13.511Z,95.40
2023-05-16T15:17:42.455Z,94.80
2023-05-16T15:20:11.324Z,93.20
2023-05-16T15:22:41.467Z,94.60
2023-05-16T15:25:09.185Z,94.90
2023-05-16T15:27:36.605Z,93.40
2023-05-16T15:30:04.118Z,93.60
2023-05-16T15:32:31.261Z,95.70
2023-05-16T15:34:58.264Z,94.90
2023-05-16T15:37:26.356Z,97.30
2023-05-16T15:39:53.236Z,94.20
2023-05-16T15:42:21.371Z,95.00
2023-05-16T15:44:48.397Z,95.00
2023-05-16T15:47:15.568Z,93.80
2023-05-16T15:49:42.910Z,92.30
2023-05-16T15:52:11.634Z,92.30
2023-05-16T15:54:38.682Z,94.00
2023-05-16T15:57:05.902Z,93.90
2023-05-16T15:59:32.848Z,96.10
2023-05-16T16:01:59.904Z,95.50
2023-05-16T16:04:26.973Z,95.80
2023-05-16T16:06:53.928Z,95.70
2023-05-16T16:09:21.242Z,96.40
2023-05-16T16:11:49.710Z,96.00
2023-05-16T16:14:16.723Z,95.00
2023-05-16T16:16:43.994Z,94.20
2023-05-16T16:19:11.104Z,95.20
2023-05-16T16:21:38.848Z,94.50
2023-05-16T16:24:06.556Z,95.30
2023-05-16T16:26:33.719Z,94.70
2023-05-16T16:29:00.889Z,95.60
2023-05-16T16:31:28.161Z,95.60
2023-05-16T16:33:55.310Z,96.10
2023-05-16T16:36:22.690Z,96.70
2023-05-16T16:38:49.719Z,96.50
2023-05-16T16:41:16.662Z,97.20
2023-05-16T16:43:43.686Z,97.40
2023-05-16T16:46:10.956Z,96.40
2023-05-16T16:48:38.274Z,98.60
2023-05-16T16:51:08.032Z,98.10
2023-05-16T16:53:37.838Z,98.00
2023-05-16T16:56:05.043Z,99.00
2023-05-16T16:58:31.977Z,99.90
2023-05-16T17:00:59.559Z,99.90
2023-05-16T17:03:26.672Z,98.90
2023-05-16T17:05:53.840Z,99.50
2023-05-16T17:08:20.990Z,99.90
2023-05-16T17:10:48.186Z,99.10
2023-05-16T17:13:17.284Z,99.90
2023-05-16T17:15:44.499Z,99.90
2023-05-16T17:18:11.509Z,99.60
2023-05-16T17:20:38.477Z,99.90
2023-05-16T17:23:05.477Z,98.80
2023-05-16T17:25:32.484Z,98.60
2023-05-16T17:27:59.499Z,99.60
2023-05-16T17:30:26.721Z,99.90
2023-05-16T17:32:54.171Z,99.40
2023-05-16T17:35:21.202Z,99.90
2023-05-16T17:37:49.845Z,99.90
2023-05-16T17:40:17.843Z,99.90
2023-05-16T17:42:45.694Z,99.90
2023-05-16T17:45:18.912Z,99.90
2023-05-16T17:47:45.896Z,99.90
2023-05-16T17:50:12.942Z,99.90
2023-05-16T17:52:40.444Z,99.90
2023-05-16T17:55:09.476Z,99.90
2023-05-16T17:57:36.572Z,99.90
2023-05-16T18:00:05.629Z,99.90
2023-05-16T18:02:36.031Z,99.90
2023-05-16T18:05:04.895Z,99.90
2023-05-16T18:07:32.069Z,99.90
2023-05-16T18:09:58.997Z,99.90
2023-05-16T18:12:26.064Z,99.90
2023-05-16T18:14:53.167Z,99.90
2023-05-16T18:17:20.222Z,99.90
2023-05-16T18:19:47.530Z,99.90
2023-05-16T18:22:14.835Z,99.90
2023-05-16T18:24:41.736Z,99.90
2023-05-16T18:27:08.858Z,99.90
2023-05-16T18:29:35.892Z,99.90
2023-05-16T18:32:03.047Z,99.90
2023-05-16T18:34:30.066Z,99.90
2023-05-16T18:36:57.118Z,99.90
2023-05-16T18:39:24.321Z,99.90
2023-05-16T18:41:51.537Z,99.90
2023-05-16T18:44:18.782Z,99.90
2023-05-16T18:46:46.535Z,99.90
2023-05-16T18:49:14.200Z,99.90
2023-05-16T18:51:41.284Z,99.90
2023-05-16T18:54:08.232Z,99.90
2023-05-16T18:56:35.231Z,99.90
2023-05-16T18:59:02.202Z,99.90
2023-05-16T19:01:29.245Z,99.90
2023-05-16T19:03:56.739Z,99.90
2023-05-16T19:06:23.887Z,99.90
2023-05-16T19:08:50.872Z,99.90
2023-05-16T19:11:18.331Z,99.90
2023-05-16T19:13:45.914Z,99.90
2023-05-16T19:16:12.996Z,99.90
2023-05-16T19:18:40.539Z,99.90
2023-05-16T19:21:08.543Z,99.90
2023-05-16T19:23:35.825Z,99.90
2023-05-16T19:26:02.767Z,99.90
2023-05-16T19:28:29.826Z,99.90
2023-05-16T19:30:57.730Z,99.90
2023-05-16T19:33:24.739Z,99.90
2023-05-16T19:35:52.852Z,99.90
2023-05-16T19:38:20.261Z,99.90
2023-05-16T19:40:47.317Z,99.90
2023-05-16T19:43:14.321Z,99.90
2023-05-16T19:45:41.367Z,99.90
2023-05-16T19:48:08.770Z,99.90
2023-05-16T19:50:36.492Z,99.90
2023-05-16T19:53:04.173Z,99.90
2023-05-16T19:55:31.626Z,99.90
2023-05-16T19:57:58.796Z,99.90
2023-05-16T20:00:25.727Z,99.90
2023-05-16T20:02:53.134Z,99.90
2023-05-16T20:05:22.991Z,99.90
2023-05-16T20:07:50.536Z,99.90
2023-05-16T20:10:18.720Z,99.90
2023-05-16T20:12:46.716Z,99.90
2023-05-16T20:15:13.689Z,99.90
2023-05-16T20:17:41.345Z,99.90
2023-05-16T20:20:09.595Z,99.90
2023-05-16T20:22:41.671Z,99.90
2023-05-16T20:25:10.413Z,99.90
2023-05-16T20:27:37.937Z,99.90
2023-05-16T20:30:06.773Z,99.90
2023-05-16T20:32:34.456Z,99.90
2023-05-16T20:35:04.329Z,99.90
2023-05-16T20:37:31.330Z,99.90
2023-05-16T20:40:00.493Z,99.90
2023-05-16T20:42:27.408Z,99.90
2023-05-16T20:44:54.350Z,99.90
2023-05-16T20:47:21.481Z,99.90
2023-05-16T20:49:48.519Z,99.90
2023-05-16T20:52:15.488Z,99.90
2023-05-16T20:54:42.436Z,99.90
2023-05-16T20:57:09.497Z,99.90
2023-05-16T20:59:37.538Z,99.90
2023-05-16T21:02:05.782Z,99.90
2023-05-16T21:04:32.952Z,99.90
2023-05-16T21:06:59.886Z,99.90
2023-05-16T21:09:26.905Z,99.90
2023-05-16T21:11:53.966Z,99.90
2023-05-16T21:14:20.845Z,99.90
2023-05-16T21:16:47.748Z,99.90
2023-05-16T21:19:14.840Z,99.90
2023-05-16T21:21:41.780Z,99.90
2023-05-16T21:24:08.707Z,99.90
2023-05-16T21:26:35.675Z,99.90
2023-05-16T21:29:02.658Z,99.90
2023-05-16T21:31:29.877Z,99.90
2023-05-16T21:33:56.873Z,99.90
2023-05-16T21:36:23.830Z,99.90
2023-05-16T21:38:50.801Z,99.90
2023-05-16T21:41:18.237Z,99.90
2023-05-16T21:43:45.272Z,99.90
2023-05-16T21:46:12.255Z,99.90
2023-05-16T21:48:39.418Z,99.90
2023-05-16T21:51:06.732Z,99.90
2023-05-16T21:53:34.447Z,99.90
2023-05-16T21:56:01.331Z,99.90
2023-05-16T21:58:28.262Z,99.90
2023-05-16T22:00:55.141Z,99.90
2023-05-16T22:03:22.376Z,99.90
2023-05-16T22:05:49.270Z,99.90
2023-05-16T22:08:16.259Z,99.90
2023-05-16T22:10:43.251Z,99.90
2023-05-16T22:13:10.640Z,99.90
2023-05-16T22:15:37.990Z,99.90
2023-05-16T22:18:05.675Z,99.90
2023-05-16T22:20:32.703Z,99.90
2023-05-16T22:22:59.722Z,99.90
2023-05-16T22:25:26.911Z,99.90
2023-05-16T22:27:54.086Z,99.90
2023-05-16T22:30:21.010Z,99.90
2023-05-16T22:32:48.000Z,99.90
2023-05-16T22:35:14.934Z,99.90
2023-05-16T22:37:42.092Z,99.90
2023-05-16T22:40:09.554Z,99.90
2023-05-16T22:42:36.441Z,99.90
2023-05-16T22:45:03.936Z,99.90
2023-05-16T22:47:30.986Z,99.90
2023-05-16T22:49:58.022Z,99.90
2023-05-16T22:52:25.015Z,99.90
2023-05-16T22:54:51.945Z,99.90
2023-05-16T22:57:18.838Z,99.90
2023-05-16T22:59:45.881Z,99.90
2023-05-16T23:02:12.805Z,99.90
2023-05-16T23:04:39.785Z,99.90
2023-05-16T23:07:06.708Z,99.90
2023-05-16T23:09:33.590Z,99.90
2023-05-16T23:12:00.855Z,99.90
2023-05-16T23:14:28.002Z,99.90
2023-05-16T23:16:54.906Z,99.90
2023-05-16T23:19:21.859Z,99.90
2023-05-16T23:21:48.901Z,99.90
2023-05-16T23:24:15.901Z,99.90
2023-05-16T23:26:42.820Z,99.90
2023-05-16T23:29:09.790Z,99.90
2023-05-16T23:31:36.670Z,99.90
2023-05-16T23:34:03.741Z,99.90
2023-05-16T23:36:31.081Z,99.90
2023-05-16T23:38:57.985Z,99.90
2023-05-16T23:41:24.903Z,99.90
2023-05-16T23:43:51.874Z,99.90
2023-05-16T23:46:18.758Z,99.90
2023-05-16T23:48:45.957Z,99.90
2023-05-16T23:51:12.884Z,99.90
2023-05-16T23:53:39.808Z,99.90
2023-05-16T23:56:06.854Z,99.90
2023-05-16T23:58:33.830Z,99.90
